Terminal Aerodrome Forecast
Issued by NWS Cleveland, OH

Home | Current Version | Previous Version | Graphics & Text | Print | Product List | Glossary Off
Versions: 1 2 3 4 5 6 7 8 9 10 11 12 13 14 15 16 17 18 19 20 21 22 23 24 25 26 27 28 29 30 31 32 33 34 35

000
FTUS41 KCLE 220856 AAB
TAFCLE
TAF AMD
KCLE 220856Z 2209/2312 16005KT 6SM BR SCT120
      TEMPO 2212/2214 3SM BR BKN025
     FM221400 12005KT P6SM BKN035
     FM221800 06012KT P6SM BKN050
     FM222300 05012KT P6SM OVC025
      TEMPO 2303/2306 3SM SHRA=

USA.gov is the U.S. government's official web portal to all federal, state and local government web resources and services.